ROMMA est une association bénévole à but non lucratif. Votre soutien est indispensable : ADHERER à ROMMA ou FAIRE un DON

Granges-lès-Beaumont - (26, Drôme)

Drôme des Collines (155 m)   Longitude: 04°58'E   Latitude: 45°03'N Station partenaire n°123
 

Détail journalier du     <<     >>

Température Precipitation Humidité Pression Vent Dir Rafale Dir. rafale Ensol.
Heure (°C) (mm) (%) (hPa) (km/h) (km/h) (min)
01:00 10.907410148NE15ENE0
02:00 10.807510148NE19ENE0
03:00 10.407810137NE15ENE0
04:00 10.008110135NNO8NNO0
05:00 9.708410125NNO8NNO0
06:00 9.108610125NNO6NNO0
07:00 8.808710124NO8NO0
08:00 9.908610128NNO21NNO0
09:00 11.4081101212N23NNO0
10:00 13.1075101212N23N0
11:00 15.4067101212NNO24N40
12:00 16.6059101216NNE31NNE50
13:00 17.7057101115N27NNO30
14:00 18.7050101016N34NNE50
15:00 19.4046100917NNO32NNO60
16:00 18.4047100916NNO31NNO40
17:00 17.7049100815N32NO30
18:00 17.6048100817NNO34N20
19:00 15.6054100916NNO31NNO0
20:00 14.7053100912NNO29NO0
21:00 13.4060101013NO27NO0
22:00 12.606610108NNO19NO0
23:00 11.507110107NNO13NNO0
minuit 10.507310107N10NO0

Graphique du 03-05-2019

 

Serveur OMMA